YBCG/OOL METAR and TAF weather

Enter ICAO airport designator
Station Type Date Time Source
YBCG METAR 2019/02/20 23:34 UTC NOAA

YBCG 202334Z AUTO 16015G25KT //// // SCT008 BKN016 BKN024 24/23 Q1009


Station Type Date Time Source
YBCG Decoded METAR 2019/02/20 23:34 UTC NOAA

Coolangatta Airport Aws, Australia (YBCG) 28-10S 153-30E 6M
Feb 20, 2019 - 06:34 PM EST / 2019.02.20 2334 UTC
Wind: from the SSE (160 degrees) at 17 MPH (15 KT) gusting to 29 MPH (25 KT):0
Sky conditions: mostly cloudy
Temperature: 75 F (24 C)
Dew Point: 73 F (23 C)
Relative Humidity: 94%
Pressure (altimeter): 29.80 in. Hg (1009 hPa)
ob: YBCG 202334Z AUTO 16015G25KT //// // SCT008 BKN016 BKN024 24/23 Q1009
cycle: 23

Station Type Date Time Source
YBCG TAF 2019/02/20 23:06 UTC NOAA

TAF TAF
AMD YBCG 202303Z 2023/2124 15018G28KT 9999 -SHRA BKN020
FM210200 15018G28KT 9999 SCT025
FM211200 17018G28KT 9999 -SHRA FEW014 BKN022 INTER 2023/2101 4000 SHRA BKN012
TEMPO 2114/2124 15020G40KT 3000 SHRA BKN010


Example: see airport list